createdAt,value
2022-07-25T00:02:10.466Z,23.90
2022-07-25T00:04:56.448Z,23.70
2022-07-25T00:07:43.740Z,23.90
2022-07-25T00:10:29.065Z,23.80
2022-07-25T00:13:14.395Z,23.70
2022-07-25T00:16:00.350Z,23.80
2022-07-25T00:18:46.244Z,23.80
2022-07-25T00:21:32.714Z,23.70
2022-07-25T00:24:18.136Z,23.80
2022-07-25T00:27:04.133Z,23.60
2022-07-25T00:29:49.765Z,23.40
2022-07-25T00:32:35.226Z,23.30
2022-07-25T00:35:20.684Z,23.50
2022-07-25T00:38:07.307Z,23.30
2022-07-25T00:40:55.513Z,23.50
2022-07-25T00:43:45.953Z,23.20
2022-07-25T00:46:31.819Z,23.30
2022-07-25T00:49:17.632Z,23.40
2022-07-25T00:52:03.256Z,23.20
2022-07-25T00:54:48.959Z,23.30
2022-07-25T00:57:43.633Z,23.30
2022-07-25T01:00:28.958Z,23.20
2022-07-25T01:03:16.712Z,23.20
2022-07-25T01:06:02.765Z,23.20
2022-07-25T01:08:48.878Z,23.10
2022-07-25T01:11:34.416Z,23.00
2022-07-25T01:14:23.130Z,22.90
2022-07-25T01:17:09.062Z,23.00
2022-07-25T01:19:54.465Z,22.90
2022-07-25T01:22:40.073Z,23.00
2022-07-25T01:25:27.423Z,22.90
2022-07-25T01:28:12.954Z,22.90
2022-07-25T01:30:58.607Z,22.90
2022-07-25T01:33:44.230Z,22.70
2022-07-25T01:36:29.808Z,22.60
2022-07-25T01:39:16.385Z,22.60
2022-07-25T01:42:01.895Z,22.50
2022-07-25T01:44:47.268Z,22.60
2022-07-25T01:47:34.075Z,22.70
2022-07-25T01:50:19.441Z,22.50
2022-07-25T01:53:05.100Z,22.50
2022-07-25T01:55:52.228Z,22.70
2022-07-25T01:58:37.969Z,22.50
2022-07-25T02:01:23.591Z,22.60
2022-07-25T02:04:09.552Z,22.50
2022-07-25T02:06:55.361Z,22.60
2022-07-25T02:09:41.476Z,22.40
2022-07-25T02:12:27.418Z,22.60
2022-07-25T02:15:12.981Z,22.60
2022-07-25T02:18:00.803Z,22.40
2022-07-25T02:20:46.609Z,22.60
2022-07-25T02:23:32.247Z,22.50
2022-07-25T02:26:18.192Z,22.30
2022-07-25T02:29:03.992Z,22.20
2022-07-25T02:31:49.855Z,22.40
2022-07-25T02:34:37.871Z,22.10
2022-07-25T02:37:23.098Z,22.30
2022-07-25T02:40:09.249Z,22.20
2022-07-25T02:42:54.904Z,22.00
2022-07-25T02:45:40.932Z,22.20
2022-07-25T02:48:26.910Z,21.90
2022-07-25T02:51:12.510Z,21.90
2022-07-25T02:54:00.231Z,22.00
2022-07-25T02:56:48.791Z,22.00
2022-07-25T02:59:34.491Z,22.00
2022-07-25T03:02:19.894Z,22.00
2022-07-25T03:05:13.210Z,21.90
2022-07-25T03:07:58.891Z,21.90
2022-07-25T03:10:44.364Z,21.80
2022-07-25T03:13:31.240Z,21.70
2022-07-25T03:16:16.537Z,21.70
2022-07-25T03:19:02.633Z,21.70
2022-07-25T03:21:47.929Z,21.60
2022-07-25T03:24:33.423Z,21.70
2022-07-25T03:27:19.005Z,21.60
2022-07-25T03:30:05.246Z,21.70
2022-07-25T03:32:54.758Z,21.50
2022-07-25T03:35:40.242Z,21.50
2022-07-25T03:38:25.999Z,21.50
2022-07-25T03:41:11.899Z,21.70
2022-07-25T03:43:57.352Z,21.40
2022-07-25T03:46:42.678Z,21.40
2022-07-25T03:49:28.722Z,21.30
2022-07-25T03:52:14.348Z,21.40
2022-07-25T03:55:02.664Z,21.60
2022-07-25T03:57:48.407Z,21.50
2022-07-25T04:00:33.899Z,21.30
2022-07-25T04:03:19.713Z,21.30
2022-07-25T04:06:05.499Z,21.50
2022-07-25T04:08:51.444Z,21.50
2022-07-25T04:11:38.246Z,21.50
2022-07-25T04:14:23.790Z,21.50
2022-07-25T04:17:09.293Z,21.30
2022-07-25T04:19:55.909Z,21.40
2022-07-25T04:22:44.879Z,21.60
2022-07-25T04:25:32.571Z,21.40
2022-07-25T04:28:18.147Z,21.50
2022-07-25T04:31:03.625Z,21.50
2022-07-25T04:33:49.058Z,21.70
2022-07-25T04:36:37.190Z,21.70
2022-07-25T04:39:22.705Z,21.60
2022-07-25T04:42:08.170Z,21.80
2022-07-25T04:44:53.771Z,21.90
2022-07-25T04:47:39.482Z,21.80
2022-07-25T04:50:25.223Z,22.10
2022-07-25T04:53:11.045Z,22.20
2022-07-25T04:55:56.591Z,22.10
2022-07-25T04:58:42.261Z,22.20
2022-07-25T05:01:27.708Z,22.30
2022-07-25T05:04:13.445Z,22.50
2022-07-25T05:06:59.389Z,22.40
2022-07-25T05:09:45.915Z,22.40
2022-07-25T05:12:31.490Z,22.70
2022-07-25T05:15:20.900Z,22.60
2022-07-25T05:18:07.621Z,22.90
2022-07-25T05:20:53.098Z,22.90
2022-07-25T05:23:39.207Z,23.00
2022-07-25T05:26:24.787Z,23.30
2022-07-25T05:29:10.544Z,23.60
2022-07-25T05:31:56.278Z,23.50
2022-07-25T05:34:42.096Z,23.80
2022-07-25T05:37:27.650Z,23.60
2022-07-25T05:40:13.393Z,23.70
2022-07-25T05:43:03.023Z,23.70
2022-07-25T05:45:49.301Z,23.90
2022-07-25T05:48:35.130Z,23.70
2022-07-25T05:51:20.813Z,24.00
2022-07-25T05:54:06.920Z,23.90
2022-07-25T05:56:52.482Z,24.10
2022-07-25T05:59:38.108Z,24.20
2022-07-25T06:02:23.631Z,24.10
2022-07-25T06:05:09.741Z,24.20
2022-07-25T06:07:55.489Z,24.20
2022-07-25T06:10:41.643Z,24.40
2022-07-25T06:13:29.083Z,24.40
2022-07-25T06:16:14.585Z,24.70
2022-07-25T06:19:00.761Z,24.50
2022-07-25T06:21:46.275Z,24.70
2022-07-25T06:24:32.073Z,25.00
2022-07-25T06:27:21.028Z,25.20
2022-07-25T06:30:19.071Z,25.30
2022-07-25T06:33:05.867Z,25.30
2022-07-25T06:35:51.187Z,25.50
2022-07-25T06:38:36.575Z,25.80
2022-07-25T06:41:22.204Z,25.60
2022-07-25T06:44:08.541Z,25.70
2022-07-25T06:46:54.424Z,25.80
2022-07-25T06:49:41.230Z,26.00
2022-07-25T06:52:26.700Z,25.80
2022-07-25T06:55:13.949Z,25.90
2022-07-25T06:57:59.618Z,25.80
2022-07-25T07:00:44.924Z,26.20
2022-07-25T07:03:30.363Z,26.30
2022-07-25T07:06:15.810Z,26.20
2022-07-25T07:09:01.460Z,26.60
2022-07-25T07:11:46.903Z,26.50
2022-07-25T07:14:32.260Z,26.60
2022-07-25T07:17:17.840Z,27.10
2022-07-25T07:20:05.359Z,27.00
2022-07-25T07:22:51.267Z,27.30
2022-07-25T07:25:37.475Z,27.50
2022-07-25T07:28:23.778Z,27.80
2022-07-25T07:31:17.919Z,27.70
2022-07-25T07:34:03.633Z,27.50
2022-07-25T07:36:49.045Z,27.50
2022-07-25T07:39:34.649Z,27.80
2022-07-25T07:42:20.253Z,27.50
2022-07-25T07:45:20.773Z,27.60
2022-07-25T07:48:06.857Z,27.60
2022-07-25T07:50:55.719Z,27.40
2022-07-25T07:53:59.558Z,27.30
2022-07-25T07:56:45.817Z,27.40
2022-07-25T07:59:31.408Z,27.20
2022-07-25T08:02:17.285Z,27.30
2022-07-25T08:05:03.367Z,27.40
2022-07-25T08:07:51.566Z,27.50
2022-07-25T08:10:39.672Z,27.60
2022-07-25T08:13:30.279Z,27.80
2022-07-25T08:16:16.195Z,27.80
2022-07-25T08:19:01.970Z,27.60
2022-07-25T08:21:47.597Z,27.70
2022-07-25T08:24:33.307Z,27.30
2022-07-25T08:27:19.065Z,27.60
2022-07-25T08:30:08.973Z,27.30
2022-07-25T08:32:57.655Z,27.20
2022-07-25T08:35:54.953Z,27.20
2022-07-25T08:38:40.729Z,27.20
2022-07-25T08:41:26.823Z,27.60
2022-07-25T08:44:16.394Z,27.70
2022-07-25T08:47:03.652Z,27.50
2022-07-25T08:49:49.563Z,27.70
2022-07-25T08:52:37.185Z,27.70
2022-07-25T08:55:25.125Z,27.30
2022-07-25T08:58:12.527Z,27.30
2022-07-25T09:00:58.642Z,27.40
2022-07-25T09:03:44.456Z,27.20
2022-07-25T09:06:31.173Z,27.50
2022-07-25T09:09:16.904Z,27.40
2022-07-25T09:12:03.249Z,27.30
2022-07-25T09:14:48.943Z,27.40
2022-07-25T09:17:41.285Z,27.20
2022-07-25T09:20:39.546Z,27.50
2022-07-25T09:23:39.645Z,27.60
2022-07-25T09:26:25.610Z,27.30
2022-07-25T09:29:17.768Z,27.40
2022-07-25T09:32:15.578Z,27.50
2022-07-25T09:35:02.342Z,27.40
2022-07-25T09:37:49.730Z,27.60
2022-07-25T09:40:35.721Z,27.60
2022-07-25T09:43:23.143Z,27.60
2022-07-25T09:46:11.461Z,27.80
2022-07-25T09:48:58.724Z,27.60
2022-07-25T09:51:50.612Z,27.90
2022-07-25T09:54:36.310Z,27.90
2022-07-25T09:57:25.741Z,28.20
2022-07-25T10:00:19.023Z,28.30
2022-07-25T10:03:31.221Z,28.40
2022-07-25T10:06:39.079Z,28.50
2022-07-25T10:09:25.134Z,28.40
2022-07-25T10:12:13.274Z,28.30
2022-07-25T10:15:14.219Z,28.20
2022-07-25T10:18:04.338Z,28.20
2022-07-25T10:20:53.895Z,28.60
2022-07-25T10:23:39.367Z,28.50
2022-07-25T10:26:25.671Z,28.70
2022-07-25T10:29:12.780Z,29.00
2022-07-25T10:32:07.260Z,29.10
2022-07-25T10:34:54.169Z,28.90
2022-07-25T10:37:40.293Z,29.10
2022-07-25T10:40:33.094Z,29.20
2022-07-25T10:43:22.874Z,29.00
2022-07-25T10:46:18.289Z,29.30
2022-07-25T10:49:08.057Z,29.10
2022-07-25T10:52:06.142Z,29.00
2022-07-25T10:55:00.278Z,29.00
2022-07-25T10:58:15.184Z,29.00
2022-07-25T11:00:54.625Z,28.90
2022-07-25T11:03:44.910Z,28.20
2022-07-25T11:06:30.636Z,27.90
2022-07-25T11:09:19.217Z,28.00
2022-07-25T11:12:06.834Z,27.80
2022-07-25T11:15:00.677Z,27.20
2022-07-25T11:17:53.711Z,27.00
2022-07-25T11:20:39.410Z,26.90
2022-07-25T11:23:24.752Z,27.00
2022-07-25T11:26:13.171Z,27.20
2022-07-25T11:28:58.503Z,27.30
2022-07-25T11:31:44.598Z,27.70
2022-07-25T11:34:36.975Z,27.60
2022-07-25T11:37:22.975Z,27.50
2022-07-25T11:40:09.705Z,27.20
2022-07-25T11:42:59.380Z,27.40
2022-07-25T11:45:44.665Z,27.20
2022-07-25T11:48:39.601Z,27.40
2022-07-25T11:51:25.327Z,27.70
2022-07-25T11:54:13.307Z,27.50
2022-07-25T11:56:58.724Z,27.60
2022-07-25T11:59:45.328Z,27.60
2022-07-25T12:02:33.155Z,27.60
2022-07-25T12:05:23.109Z,27.50
2022-07-25T12:08:13.759Z,27.40
2022-07-25T12:11:02.293Z,27.30
2022-07-25T12:13:50.796Z,27.10
2022-07-25T12:16:36.767Z,27.10
2022-07-25T12:19:24.207Z,27.30
2022-07-25T12:22:14.144Z,27.10
2022-07-25T12:24:59.562Z,27.10
2022-07-25T12:27:47.742Z,27.40
2022-07-25T12:30:34.340Z,27.50
2022-07-25T12:33:20.068Z,27.70
2022-07-25T12:36:08.583Z,28.00
2022-07-25T12:38:54.310Z,28.10
2022-07-25T12:41:42.526Z,28.10
2022-07-25T12:44:30.245Z,28.10
2022-07-25T12:47:15.864Z,28.00
2022-07-25T12:50:02.256Z,28.10
2022-07-25T12:52:48.145Z,28.10
2022-07-25T12:55:33.468Z,28.20
2022-07-25T12:58:19.156Z,28.10
2022-07-25T13:01:06.188Z,27.90
2022-07-25T13:03:51.793Z,28.00
2022-07-25T13:06:38.968Z,28.30
2022-07-25T13:09:26.176Z,28.40
2022-07-25T13:12:16.364Z,28.40
2022-07-25T13:15:02.841Z,28.20
2022-07-25T13:17:48.255Z,28.30
2022-07-25T13:20:36.038Z,28.20
2022-07-25T13:23:21.730Z,27.90
2022-07-25T13:26:08.037Z,27.70
2022-07-25T13:28:59.371Z,28.00
2022-07-25T13:31:45.469Z,27.60
2022-07-25T13:34:30.951Z,27.60
2022-07-25T13:37:16.736Z,27.20
2022-07-25T13:40:02.358Z,26.80
2022-07-25T13:42:48.030Z,26.60
2022-07-25T13:45:33.761Z,26.40
2022-07-25T13:48:29.649Z,26.30
2022-07-25T13:51:16.260Z,26.10
2022-07-25T13:54:05.385Z,26.10
2022-07-25T13:56:54.578Z,25.90
2022-07-25T13:59:40.167Z,25.60
2022-07-25T14:02:25.595Z,25.80
2022-07-25T14:05:11.605Z,25.90
2022-07-25T14:07:57.593Z,26.00
2022-07-25T14:10:44.105Z,26.20
2022-07-25T14:13:29.767Z,26.40
2022-07-25T14:16:19.921Z,26.50
2022-07-25T14:19:05.584Z,26.60
2022-07-25T14:21:51.362Z,27.10
2022-07-25T14:24:36.907Z,27.30
2022-07-25T14:27:23.913Z,27.40
2022-07-25T14:30:09.963Z,27.20
2022-07-25T14:32:55.606Z,26.80
2022-07-25T14:35:40.972Z,26.70
2022-07-25T14:38:26.705Z,26.60
2022-07-25T14:41:13.270Z,26.60
2022-07-25T14:43:59.986Z,26.60
2022-07-25T14:46:45.745Z,26.70
2022-07-25T14:49:31.664Z,27.00
2022-07-25T14:52:17.391Z,26.90
2022-07-25T14:55:03.111Z,27.10
2022-07-25T14:57:51.353Z,27.30
2022-07-25T15:00:41.812Z,27.30
2022-07-25T15:03:27.724Z,27.60
2022-07-25T15:06:13.516Z,27.40
2022-07-25T15:08:59.092Z,27.30
2022-07-25T15:11:47.378Z,27.50
2022-07-25T15:14:33.062Z,27.40
2022-07-25T15:17:18.564Z,27.20
2022-07-25T15:20:04.812Z,27.10
2022-07-25T15:22:50.486Z,27.10
2022-07-25T15:26:00.765Z,27.20
2022-07-25T15:28:41.692Z,27.10
2022-07-25T15:31:27.691Z,26.70
2022-07-25T15:34:13.910Z,26.80
2022-07-25T15:36:59.598Z,26.50
2022-07-25T15:39:45.520Z,26.60
2022-07-25T15:42:32.923Z,26.20
2022-07-25T15:45:36.516Z,26.30
2022-07-25T15:48:23.656Z,26.20
2022-07-25T15:51:09.834Z,26.30
2022-07-25T15:53:55.534Z,26.20
2022-07-25T15:56:41.011Z,26.00
2022-07-25T15:59:27.812Z,25.90
2022-07-25T16:02:13.222Z,25.90
2022-07-25T16:04:58.718Z,26.10
2022-07-25T16:07:44.564Z,26.00
2022-07-25T16:10:31.923Z,26.10
2022-07-25T16:13:20.180Z,26.30
2022-07-25T16:16:07.612Z,26.00
2022-07-25T16:18:53.041Z,25.90
2022-07-25T16:21:39.955Z,25.90
2022-07-25T16:24:25.629Z,25.70
2022-07-25T16:27:11.047Z,25.70
2022-07-25T16:29:56.915Z,25.80
2022-07-25T16:32:42.301Z,25.60
2022-07-25T16:35:32.572Z,25.50
2022-07-25T16:38:18.155Z,25.30
2022-07-25T16:41:03.651Z,25.20
2022-07-25T16:43:48.915Z,25.30
2022-07-25T16:46:34.571Z,25.10
2022-07-25T16:49:20.119Z,25.10
2022-07-25T16:52:05.910Z,24.90
2022-07-25T16:54:52.876Z,25.00
2022-07-25T16:57:38.977Z,24.90
2022-07-25T17:00:24.665Z,24.90
2022-07-25T17:03:10.170Z,24.90
2022-07-25T17:05:57.161Z,24.80
2022-07-25T17:08:43.245Z,24.60
2022-07-25T17:11:31.343Z,24.70
2022-07-25T17:14:16.898Z,24.60
2022-07-25T17:17:02.354Z,24.40
2022-07-25T17:19:48.246Z,24.50
2022-07-25T17:22:33.692Z,24.50
2022-07-25T17:25:18.932Z,24.20
2022-07-25T17:28:06.068Z,24.50
2022-07-25T17:30:51.889Z,24.30
2022-07-25T17:33:37.900Z,24.40
2022-07-25T17:36:23.418Z,24.20
2022-07-25T17:39:08.991Z,24.10
2022-07-25T17:41:55.033Z,24.10
2022-07-25T17:44:40.708Z,24.00
2022-07-25T17:47:26.056Z,23.80
2022-07-25T17:50:12.029Z,23.80
2022-07-25T17:52:59.534Z,23.80
2022-07-25T17:55:45.564Z,24.00
2022-07-25T17:58:31.840Z,23.70
2022-07-25T18:01:17.446Z,23.80
2022-07-25T18:04:03.686Z,23.60
2022-07-25T18:06:50.278Z,23.60
2022-07-25T18:09:35.879Z,23.70
2022-07-25T18:12:23.792Z,23.50
2022-07-25T18:15:12.354Z,23.60
2022-07-25T18:17:57.790Z,23.40
2022-07-25T18:20:44.373Z,23.50
2022-07-25T18:23:30.707Z,23.30
2022-07-25T18:26:17.931Z,23.50
2022-07-25T18:29:03.299Z,23.30
2022-07-25T18:31:48.949Z,23.20
2022-07-25T18:34:41.762Z,23.40
2022-07-25T18:37:27.726Z,23.30
2022-07-25T18:40:14.080Z,23.30
2022-07-25T18:42:59.669Z,23.30
2022-07-25T18:45:49.184Z,22.90
2022-07-25T18:48:38.164Z,22.90
2022-07-25T18:51:24.190Z,22.90
2022-07-25T18:54:10.084Z,23.10
2022-07-25T18:56:56.339Z,23.10
2022-07-25T18:59:42.479Z,23.00
2022-07-25T19:02:28.125Z,22.90
2022-07-25T19:05:13.630Z,23.00
2022-07-25T19:08:00.252Z,22.70
2022-07-25T19:10:45.803Z,22.90
2022-07-25T19:16:37.290Z,22.60
2022-07-25T19:19:26.933Z,22.80
2022-07-25T19:22:12.778Z,22.60
2022-07-25T19:25:01.109Z,22.50
2022-07-25T19:27:46.929Z,22.70
2022-07-25T19:30:32.584Z,22.60
2022-07-25T19:33:18.340Z,22.50
2022-07-25T19:36:04.886Z,22.40
2022-07-25T19:38:50.594Z,22.20
2022-07-25T19:41:37.553Z,22.20
2022-07-25T19:44:23.700Z,22.00
2022-07-25T19:47:11.797Z,22.30
2022-07-25T19:49:57.608Z,22.00
2022-07-25T19:52:43.027Z,22.00
2022-07-25T19:55:29.007Z,22.10
2022-07-25T19:58:17.733Z,22.10
2022-07-25T20:01:03.314Z,22.10
2022-07-25T20:03:49.124Z,22.00
2022-07-25T20:06:37.611Z,21.90
2022-07-25T20:09:22.935Z,21.80
2022-07-25T20:12:08.824Z,22.00
2022-07-25T20:14:54.290Z,22.00
2022-07-25T20:17:40.126Z,21.90
2022-07-25T20:20:26.562Z,21.90
2022-07-25T20:23:12.053Z,21.80
2022-07-25T20:25:58.101Z,21.80
2022-07-25T20:28:43.853Z,22.00
2022-07-25T20:31:29.366Z,21.80
2022-07-25T20:34:15.983Z,21.90
2022-07-25T20:37:05.133Z,21.80
2022-07-25T20:39:50.714Z,21.70
2022-07-25T20:42:37.791Z,21.70
2022-07-25T20:45:23.747Z,21.70
2022-07-25T20:48:09.507Z,21.60
2022-07-25T20:50:55.374Z,21.90
2022-07-25T20:53:41.944Z,21.60
2022-07-25T20:56:27.305Z,21.60
2022-07-25T20:59:13.256Z,21.60
2022-07-25T21:01:58.861Z,21.80
2022-07-25T21:04:44.867Z,21.70
2022-07-25T21:07:30.599Z,21.50
2022-07-25T21:10:16.650Z,21.70
2022-07-25T21:13:02.450Z,21.70
2022-07-25T21:15:47.687Z,21.40
2022-07-25T21:18:33.603Z,21.70
2022-07-25T21:21:18.972Z,21.40
2022-07-25T21:24:04.652Z,21.60
2022-07-25T21:26:51.351Z,21.40
2022-07-25T21:29:36.965Z,21.40
2022-07-25T21:32:23.561Z,21.30
2022-07-25T21:35:11.978Z,21.20
2022-07-25T21:37:58.753Z,21.30
2022-07-25T21:40:44.199Z,21.20
2022-07-25T21:43:30.202Z,21.10
2022-07-25T21:46:15.629Z,21.00
2022-07-25T21:49:40.609Z,21.00
2022-07-25T21:52:29.271Z,20.90
2022-07-25T21:55:16.240Z,20.80
2022-07-25T21:58:05.372Z,21.00
2022-07-25T22:00:51.970Z,20.80
2022-07-25T22:03:37.192Z,20.80
2022-07-25T22:06:22.794Z,20.90
2022-07-25T22:09:08.445Z,20.70
2022-07-25T22:11:55.056Z,20.70
2022-07-25T22:14:40.529Z,20.70
2022-07-25T22:17:27.152Z,20.80
2022-07-25T22:20:32.774Z,20.50
2022-07-25T22:23:18.396Z,20.50
2022-07-25T22:26:03.977Z,20.60
2022-07-25T22:28:50.802Z,20.60
2022-07-25T22:31:38.794Z,20.70
2022-07-25T22:34:24.809Z,20.50
2022-07-25T22:37:10.420Z,20.70
2022-07-25T22:40:00.795Z,20.60
2022-07-25T22:42:46.874Z,20.70
2022-07-25T22:45:32.511Z,20.50
2022-07-25T22:48:19.827Z,20.60
2022-07-25T22:51:05.252Z,20.60
2022-07-25T22:53:51.068Z,20.80
2022-07-25T22:56:36.919Z,20.50
2022-07-25T22:59:22.854Z,20.60
2022-07-25T23:02:08.106Z,20.70
2022-07-25T23:04:54.891Z,20.50
2022-07-25T23:07:40.514Z,20.80
2022-07-25T23:10:26.231Z,20.60
2022-07-25T23:13:11.582Z,20.60
2022-07-25T23:15:57.181Z,20.50
2022-07-25T23:18:42.970Z,20.70
2022-07-25T23:21:28.760Z,20.70
2022-07-25T23:24:14.650Z,20.50
2022-07-25T23:27:00.184Z,20.70
2022-07-25T23:29:45.698Z,20.70
2022-07-25T23:32:30.965Z,20.70
2022-07-25T23:35:16.692Z,20.50
2022-07-25T23:38:03.666Z,20.50
2022-07-25T23:40:50.153Z,20.70
2022-07-25T23:43:55.765Z,20.70
2022-07-25T23:46:41.784Z,20.70
2022-07-25T23:49:31.634Z,20.70
2022-07-25T23:52:17.089Z,20.50
2022-07-25T23:55:03.297Z,20.70
2022-07-25T23:57:51.495Z,20.60
